createdAt,value
2018-01-21T00:00:01.256Z,0
2018-01-21T00:00:41.810Z,0
2018-01-21T00:01:22.365Z,0
2018-01-21T00:02:02.985Z,0
2018-01-21T00:02:43.516Z,0
2018-01-21T00:03:24.060Z,0
2018-01-21T00:04:04.617Z,0
2018-01-21T00:04:45.088Z,0
2018-01-21T00:05:25.651Z,0
2018-01-21T00:06:06.196Z,0
2018-01-21T00:06:46.894Z,0
2018-01-21T00:07:27.530Z,0
2018-01-21T00:08:08.298Z,0
2018-01-21T00:08:48.813Z,0
2018-01-21T00:09:29.322Z,0
2018-01-21T00:10:09.840Z,0
2018-01-21T00:10:50.359Z,0
2018-01-21T00:11:30.944Z,0
2018-01-21T00:12:11.461Z,0
2018-01-21T00:12:52.058Z,0
2018-01-21T00:13:32.568Z,0
2018-01-21T00:14:13.159Z,0
2018-01-21T00:14:53.689Z,0
2018-01-21T00:15:34.231Z,0
2018-01-21T00:16:14.786Z,0
2018-01-21T00:16:55.399Z,0
2018-01-21T00:17:35.899Z,0
2018-01-21T00:18:17.323Z,0
2018-01-21T00:18:57.048Z,0
2018-01-21T00:19:37.652Z,0
2018-01-21T00:20:18.220Z,0
2018-01-21T00:20:58.754Z,0
2018-01-21T00:21:39.294Z,0
2018-01-21T00:22:19.847Z,0
2018-01-21T00:23:00.385Z,0
2018-01-21T00:23:40.868Z,0
2018-01-21T00:24:21.397Z,0
2018-01-21T00:25:02.002Z,0
2018-01-21T00:25:42.543Z,0
2018-01-21T00:26:23.361Z,0
2018-01-21T00:27:03.931Z,0
2018-01-21T00:27:44.429Z,0
2018-01-21T00:28:24.970Z,0
2018-01-21T00:29:05.546Z,0
2018-01-21T00:29:45.999Z,0
2018-01-21T00:30:26.661Z,0
2018-01-21T00:31:07.262Z,0
2018-01-21T00:31:47.774Z,0
2018-01-21T00:32:28.401Z,0
2018-01-21T00:33:09.049Z,0
2018-01-21T00:33:49.544Z,0
2018-01-21T00:34:30.181Z,0
2018-01-21T00:35:10.693Z,0
2018-01-21T00:35:51.239Z,0
2018-01-21T00:36:31.747Z,0
2018-01-21T00:37:12.265Z,0
2018-01-21T00:37:52.815Z,0
2018-01-21T00:38:33.414Z,0
2018-01-21T00:39:14.031Z,0
2018-01-21T00:39:54.542Z,0
2018-01-21T00:40:35.146Z,0
2018-01-21T00:41:15.638Z,0
2018-01-21T00:41:56.208Z,0
2018-01-21T00:42:36.738Z,0
2018-01-21T00:43:17.366Z,0
2018-01-21T00:43:57.900Z,0
2018-01-21T00:44:38.460Z,0
2018-01-21T00:45:18.963Z,0
2018-01-21T00:45:59.495Z,0
2018-01-21T00:46:40.052Z,0
2018-01-21T00:47:20.571Z,0
2018-01-21T00:48:01.070Z,0
2018-01-21T00:48:41.658Z,0
2018-01-21T00:49:22.195Z,0
2018-01-21T00:50:02.718Z,0
2018-01-21T00:50:43.255Z,0
2018-01-21T00:53:04.551Z,0
2018-01-21T00:53:45.122Z,0
2018-01-21T00:54:25.673Z,0
2018-01-21T00:55:06.218Z,0
2018-01-21T00:55:46.776Z,0
2018-01-21T00:56:27.265Z,0
2018-01-21T00:57:07.878Z,0
2018-01-21T00:57:48.424Z,0
2018-01-21T00:58:28.930Z,0
2018-01-21T00:59:09.541Z,0
2018-01-21T00:59:49.972Z,0
2018-01-21T01:00:30.608Z,0
2018-01-21T01:01:11.086Z,0
2018-01-21T01:01:51.617Z,0
2018-01-21T01:02:32.122Z,0
2018-01-21T01:03:12.668Z,0
2018-01-21T01:03:53.264Z,0
2018-01-21T01:04:33.804Z,0
2018-01-21T01:05:14.325Z,0
2018-01-21T01:05:54.909Z,0
2018-01-21T01:06:35.497Z,0
2018-01-21T01:07:15.986Z,0
2018-01-21T01:07:56.563Z,0
2018-01-21T01:08:37.054Z,0
2018-01-21T01:09:17.577Z,0
2018-01-21T01:09:58.122Z,0
2018-01-21T01:10:38.658Z,0
2018-01-21T01:11:19.221Z,0
2018-01-21T01:11:59.718Z,0
2018-01-21T01:12:40.254Z,0
2018-01-21T01:13:20.818Z,0
2018-01-21T01:14:01.340Z,0
2018-01-21T01:14:41.837Z,0
2018-01-21T01:15:22.408Z,0
2018-01-21T01:16:02.946Z,0
2018-01-21T01:16:43.434Z,0
2018-01-21T01:17:23.999Z,0
2018-01-21T01:18:04.544Z,0
2018-01-21T01:18:45.123Z,0
2018-01-21T01:19:25.739Z,0
2018-01-21T01:20:06.286Z,0
2018-01-21T01:20:46.763Z,0
2018-01-21T01:21:29.240Z,0
2018-01-21T01:22:09.788Z,0
2018-01-21T01:22:50.326Z,0
2018-01-21T01:23:30.844Z,0
2018-01-21T01:24:11.393Z,0
2018-01-21T01:24:51.918Z,0
2018-01-21T01:25:32.473Z,0
2018-01-21T01:26:13.004Z,0
2018-01-21T01:26:53.543Z,0
2018-01-21T01:27:34.135Z,0
2018-01-21T01:28:14.663Z,0
2018-01-21T01:28:55.211Z,0
2018-01-21T01:29:35.780Z,0
2018-01-21T01:30:16.271Z,0
2018-01-21T01:30:56.874Z,0
2018-01-21T01:31:37.404Z,0
2018-01-21T01:32:17.958Z,0
2018-01-21T01:32:58.560Z,0
2018-01-21T01:33:39.104Z,0
2018-01-21T01:34:19.660Z,0
2018-01-21T01:35:00.238Z,0
2018-01-21T01:35:40.735Z,0
2018-01-21T01:36:21.260Z,0
2018-01-21T01:37:01.831Z,0
2018-01-21T01:37:42.359Z,0
2018-01-21T01:38:22.892Z,0
2018-01-21T01:39:03.415Z,0
2018-01-21T01:39:43.934Z,0
2018-01-21T01:40:24.458Z,0
2018-01-21T01:41:05.052Z,0
2018-01-21T01:41:45.597Z,0
2018-01-21T01:42:26.083Z,0
2018-01-21T01:43:06.701Z,0
2018-01-21T01:43:47.218Z,0
2018-01-21T01:44:27.766Z,0
2018-01-21T01:45:08.298Z,0
2018-01-21T01:45:48.808Z,0
2018-01-21T01:46:29.340Z,0
2018-01-21T01:47:09.846Z,0
2018-01-21T01:47:50.374Z,0
2018-01-21T01:48:30.954Z,0
2018-01-21T01:49:11.497Z,0
2018-01-21T01:49:52.052Z,0
2018-01-21T01:50:32.547Z,0
2018-01-21T01:51:13.113Z,0
2018-01-21T01:51:53.601Z,0
2018-01-21T01:52:34.188Z,0
2018-01-21T01:53:14.769Z,0
2018-01-21T01:53:55.245Z,0
2018-01-21T01:54:35.758Z,0
2018-01-21T01:55:16.306Z,0
2018-01-21T01:55:56.844Z,0
2018-01-21T01:56:37.437Z,0
2018-01-21T01:57:17.981Z,0
2018-01-21T01:57:58.524Z,0
2018-01-21T01:58:39.077Z,0
2018-01-21T01:59:19.581Z,0
2018-01-21T02:00:00.161Z,0
2018-01-21T02:00:40.647Z,0
2018-01-21T02:01:21.178Z,0
2018-01-21T02:02:01.749Z,0
2018-01-21T02:02:42.329Z,0
2018-01-21T02:03:23.294Z,0
2018-01-21T02:04:03.903Z,0
2018-01-21T02:04:44.411Z,0
2018-01-21T02:05:24.956Z,0
2018-01-21T02:06:05.461Z,0
2018-01-21T02:06:46.027Z,0
2018-01-21T02:07:26.567Z,0
2018-01-21T02:08:07.087Z,0
2018-01-21T02:08:47.596Z,0
2018-01-21T02:09:28.167Z,0
2018-01-21T02:10:08.734Z,0
2018-01-21T02:10:49.244Z,0
2018-01-21T02:11:29.775Z,0
2018-01-21T02:12:10.327Z,0
2018-01-21T02:12:50.888Z,0
2018-01-21T02:13:31.384Z,0
2018-01-21T02:14:11.952Z,0
2018-01-21T02:14:52.490Z,0
2018-01-21T02:15:33.014Z,0
2018-01-21T02:16:13.681Z,0
2018-01-21T02:16:54.213Z,0
2018-01-21T02:17:34.806Z,0
2018-01-21T02:18:15.302Z,0
2018-01-21T02:18:55.872Z,0
2018-01-21T02:19:36.405Z,0
2018-01-21T02:20:16.937Z,0
2018-01-21T02:20:57.475Z,0
2018-01-21T02:21:38.019Z,0
2018-01-21T02:22:18.548Z,0
2018-01-21T02:22:59.079Z,0
2018-01-21T02:23:39.603Z,0
2018-01-21T02:24:20.216Z,0
2018-01-21T02:25:00.752Z,0
2018-01-21T02:25:41.294Z,0
2018-01-21T02:26:21.856Z,0
2018-01-21T02:27:02.470Z,0
2018-01-21T02:27:43.023Z,0
2018-01-21T02:28:23.552Z,0
2018-01-21T02:29:04.118Z,0
2018-01-21T02:29:44.651Z,0
2018-01-21T02:30:25.158Z,0
2018-01-21T02:31:05.648Z,0
2018-01-21T02:31:46.241Z,0
2018-01-21T02:32:26.790Z,0
2018-01-21T02:33:07.320Z,0
2018-01-21T02:33:47.872Z,0
2018-01-21T02:34:28.400Z,0
2018-01-21T02:35:08.952Z,0
2018-01-21T02:35:49.543Z,0
2018-01-21T02:36:30.108Z,0
2018-01-21T02:37:10.677Z,0
2018-01-21T02:37:51.234Z,0
2018-01-21T02:38:31.721Z,0
2018-01-21T02:39:12.233Z,0
2018-01-21T02:39:52.830Z,0
2018-01-21T02:40:33.300Z,0
2018-01-21T02:41:13.769Z,0
2018-01-21T02:41:54.307Z,0
2018-01-21T02:42:34.847Z,0
2018-01-21T02:43:15.429Z,0
2018-01-21T02:43:55.980Z,0
2018-01-21T02:44:36.493Z,0
2018-01-21T02:45:17.015Z,0
2018-01-21T02:45:57.570Z,0
2018-01-21T02:46:38.099Z,0
2018-01-21T02:47:18.621Z,0
2018-01-21T02:47:59.140Z,0
2018-01-21T02:48:39.659Z,0
2018-01-21T02:49:20.234Z,0
2018-01-21T02:50:00.752Z,0
2018-01-21T02:50:41.288Z,0
2018-01-21T02:51:21.814Z,0
2018-01-21T02:52:02.316Z,0
2018-01-21T02:52:42.891Z,0
2018-01-21T02:53:23.408Z,0
2018-01-21T02:54:03.990Z,0
2018-01-21T02:54:44.532Z,0
2018-01-21T02:55:25.131Z,0
2018-01-21T02:56:05.671Z,0
2018-01-21T02:56:46.182Z,0
2018-01-21T02:57:26.720Z,0
2018-01-21T02:58:07.238Z,0
2018-01-21T02:58:47.757Z,0
2018-01-21T02:59:28.274Z,0
2018-01-21T03:00:08.818Z,0
2018-01-21T03:00:49.332Z,0
2018-01-21T03:01:29.838Z,0
2018-01-21T03:02:10.402Z,0
2018-01-21T03:02:50.927Z,0
2018-01-21T03:03:31.466Z,0
2018-01-21T03:04:11.999Z,0
2018-01-21T03:04:52.542Z,0
2018-01-21T03:05:33.099Z,0
2018-01-21T03:06:13.565Z,0
2018-01-21T03:06:54.122Z,0
2018-01-21T03:07:34.644Z,0
2018-01-21T03:08:15.189Z,0
2018-01-21T03:08:55.720Z,0
2018-01-21T03:09:36.239Z,0
2018-01-21T03:10:16.777Z,0
2018-01-21T03:10:57.300Z,0
2018-01-21T03:11:37.820Z,0
2018-01-21T03:12:18.362Z,0
2018-01-21T03:12:58.856Z,0
2018-01-21T03:13:39.400Z,0
2018-01-21T03:14:20.045Z,0
2018-01-21T03:15:00.608Z,0
2018-01-21T03:15:41.154Z,0
2018-01-21T03:16:21.670Z,0
2018-01-21T03:17:02.185Z,0
2018-01-21T03:17:42.736Z,0
2018-01-21T03:18:23.277Z,0
2018-01-21T03:19:03.824Z,0
2018-01-21T03:19:44.383Z,0
2018-01-21T03:20:24.911Z,0
2018-01-21T03:21:05.433Z,0
2018-01-21T03:21:45.973Z,0
2018-01-21T03:22:26.533Z,0
2018-01-21T03:23:07.062Z,0
2018-01-21T03:23:47.610Z,0
2018-01-21T03:24:28.135Z,0
2018-01-21T03:25:08.687Z,0
2018-01-21T03:25:49.245Z,0
2018-01-21T03:26:29.706Z,0
2018-01-21T03:27:10.306Z,0
2018-01-21T03:27:50.842Z,0
2018-01-21T03:28:31.432Z,0
2018-01-21T03:29:11.982Z,0
2018-01-21T03:29:52.512Z,0
2018-01-21T03:30:33.091Z,0
2018-01-21T03:31:13.596Z,0
2018-01-21T03:31:54.143Z,0
2018-01-21T03:32:34.699Z,0
2018-01-21T03:33:15.216Z,0
2018-01-21T03:33:55.773Z,0
2018-01-21T03:34:36.341Z,0
2018-01-21T03:35:16.893Z,0
2018-01-21T03:35:57.416Z,0
2018-01-21T03:36:37.965Z,0
2018-01-21T03:37:18.504Z,0
2018-01-21T03:37:59.034Z,0
2018-01-21T03:38:39.570Z,0
2018-01-21T03:39:20.251Z,0
2018-01-21T03:40:00.676Z,0
2018-01-21T03:40:41.216Z,0
2018-01-21T03:41:21.718Z,0
2018-01-21T03:42:02.253Z,0
2018-01-21T03:42:42.784Z,0
2018-01-21T03:43:23.325Z,0
2018-01-21T03:44:03.850Z,0
2018-01-21T03:44:44.447Z,0
2018-01-21T03:45:24.988Z,0
2018-01-21T03:46:05.513Z,0
2018-01-21T03:46:46.038Z,0
2018-01-21T03:47:26.613Z,0
2018-01-21T03:48:07.101Z,0
2018-01-21T03:48:47.685Z,0
2018-01-21T03:49:28.175Z,0
2018-01-21T03:50:08.686Z,0
2018-01-21T03:50:49.273Z,0
2018-01-21T03:51:29.759Z,0
2018-01-21T03:52:10.401Z,0
2018-01-21T03:52:50.938Z,0
2018-01-21T03:53:31.494Z,0
2018-01-21T03:54:12.055Z,0
2018-01-21T03:54:52.598Z,0
2018-01-21T03:55:33.065Z,0
2018-01-21T03:56:13.629Z,0
2018-01-21T03:56:54.120Z,0
2018-01-21T03:57:34.673Z,0
2018-01-21T03:58:15.173Z,0
2018-01-21T03:58:55.794Z,0
2018-01-21T03:59:36.352Z,0
2018-01-21T04:00:16.878Z,0
2018-01-21T04:00:57.380Z,0
2018-01-21T04:01:37.933Z,0
2018-01-21T04:02:18.456Z,0
2018-01-21T04:02:59.039Z,0
2018-01-21T04:03:39.566Z,0
2018-01-21T04:04:20.078Z,0
2018-01-21T04:05:00.598Z,0
2018-01-21T04:05:41.125Z,0
2018-01-21T04:06:21.665Z,0
2018-01-21T04:07:02.225Z,0
2018-01-21T04:07:42.733Z,0
2018-01-21T04:08:23.248Z,0
2018-01-21T04:09:03.742Z,0
2018-01-21T04:09:44.290Z,0
2018-01-21T04:10:24.840Z,0
2018-01-21T04:11:05.369Z,0
2018-01-21T04:11:45.831Z,0
2018-01-21T04:12:26.358Z,0
2018-01-21T04:13:06.920Z,0
2018-01-21T04:13:47.434Z,0
2018-01-21T04:14:27.930Z,0
2018-01-21T04:15:08.480Z,0
2018-01-21T04:15:49.036Z,0
2018-01-21T04:16:30.423Z,0
2018-01-21T04:17:10.983Z,0
2018-01-21T04:17:51.486Z,0
2018-01-21T04:18:32.067Z,0
2018-01-21T04:19:12.543Z,0
2018-01-21T04:19:53.128Z,0
2018-01-21T04:20:33.645Z,0
2018-01-21T04:21:14.184Z,0
2018-01-21T04:21:54.755Z,0
2018-01-21T04:22:35.278Z,0
2018-01-21T04:23:15.827Z,0
2018-01-21T04:23:56.337Z,0
2018-01-21T04:24:36.852Z,0
2018-01-21T04:25:17.424Z,0
2018-01-21T04:25:57.961Z,0
2018-01-21T04:26:38.506Z,0
2018-01-21T04:27:19.065Z,0
2018-01-21T04:27:59.618Z,0
2018-01-21T04:28:40.180Z,0
2018-01-21T04:29:20.730Z,0
2018-01-21T04:30:01.284Z,0
2018-01-21T04:30:41.798Z,0
2018-01-21T04:31:22.348Z,0
2018-01-21T04:32:02.892Z,0
2018-01-21T04:32:43.454Z,0
2018-01-21T04:33:23.998Z,0
2018-01-21T04:34:04.558Z,0
2018-01-21T04:34:45.059Z,0
2018-01-21T04:35:25.635Z,0
2018-01-21T04:36:06.171Z,0
2018-01-21T04:36:46.695Z,0
2018-01-21T04:37:27.266Z,0
2018-01-21T04:38:07.759Z,0
2018-01-21T04:38:48.329Z,0
2018-01-21T04:39:28.863Z,0
2018-01-21T04:40:09.404Z,0
2018-01-21T04:40:49.912Z,0
2018-01-21T04:41:30.569Z,0
2018-01-21T04:42:11.119Z,0
2018-01-21T04:42:52.122Z,0
2018-01-21T04:43:32.186Z,0
2018-01-21T04:44:12.746Z,0
2018-01-21T04:44:53.253Z,0
2018-01-21T04:45:33.807Z,0
2018-01-21T04:46:14.362Z,0
2018-01-21T04:46:54.873Z,0
2018-01-21T04:47:35.430Z,0
2018-01-21T04:48:15.951Z,0
2018-01-21T04:48:56.484Z,0
2018-01-21T04:49:37.030Z,0
2018-01-21T04:50:17.551Z,0
2018-01-21T04:50:58.086Z,0
2018-01-21T04:51:38.649Z,0
2018-01-21T04:52:19.225Z,0
2018-01-21T04:52:59.730Z,0
2018-01-21T04:53:40.276Z,0
2018-01-21T04:54:20.788Z,0
2018-01-21T04:55:01.384Z,0
2018-01-21T04:55:41.904Z,0
2018-01-21T04:56:22.445Z,0
2018-01-21T04:57:03.015Z,0
2018-01-21T04:57:43.503Z,0
2018-01-21T04:58:24.058Z,0
2018-01-21T04:59:04.602Z,0
2018-01-21T04:59:45.141Z,0
2018-01-21T05:00:25.606Z,0
2018-01-21T05:01:06.181Z,0
2018-01-21T05:01:46.708Z,0
2018-01-21T05:02:27.244Z,0
2018-01-21T05:03:07.798Z,0
2018-01-21T05:03:48.326Z,0
2018-01-21T05:04:28.827Z,0
2018-01-21T05:05:09.456Z,0
2018-01-21T05:05:49.941Z,0
2018-01-21T05:06:30.495Z,0
2018-01-21T05:07:11.044Z,0
2018-01-21T05:07:51.546Z,0
2018-01-21T05:08:32.096Z,0
2018-01-21T05:09:12.598Z,0
2018-01-21T05:09:53.149Z,0
2018-01-21T05:10:33.705Z,0
2018-01-21T05:11:14.240Z,0
2018-01-21T05:11:54.799Z,0
2018-01-21T05:12:35.321Z,0
2018-01-21T05:13:15.849Z,0
2018-01-21T05:13:56.409Z,0
2018-01-21T05:14:36.977Z,0
2018-01-21T05:15:17.493Z,0
2018-01-21T05:15:58.017Z,0
2018-01-21T05:16:38.561Z,0
2018-01-21T05:17:19.099Z,0
2018-01-21T05:17:59.643Z,0
2018-01-21T05:18:40.249Z,0
2018-01-21T05:19:20.782Z,0
2018-01-21T05:20:01.287Z,0
2018-01-21T05:20:42.083Z,0
2018-01-21T05:21:22.637Z,0
2018-01-21T05:22:03.142Z,0
2018-01-21T05:22:43.717Z,0
2018-01-21T05:23:24.266Z,0
2018-01-21T05:24:04.837Z,0
2018-01-21T05:24:45.381Z,0
2018-01-21T05:25:25.898Z,0
2018-01-21T05:26:06.392Z,0
2018-01-21T05:26:46.994Z,0
2018-01-21T05:27:27.527Z,0
2018-01-21T05:28:08.088Z,0
2018-01-21T05:28:48.633Z,0
2018-01-21T05:29:29.143Z,0
2018-01-21T05:30:09.701Z,0
2018-01-21T05:30:50.231Z,0
2018-01-21T05:31:30.804Z,0
2018-01-21T05:32:11.312Z,0
2018-01-21T05:32:51.855Z,0
2018-01-21T05:33:32.375Z,0
2018-01-21T05:34:12.987Z,0
2018-01-21T05:34:53.483Z,0
2018-01-21T05:35:33.980Z,0
2018-01-21T05:36:14.573Z,0
2018-01-21T05:36:55.118Z,0
2018-01-21T05:37:35.589Z,0
2018-01-21T05:38:16.134Z,0
2018-01-21T05:38:56.683Z,0
2018-01-21T05:39:37.206Z,0
2018-01-21T05:40:17.747Z,0
2018-01-21T05:40:58.286Z,0
2018-01-21T05:41:38.846Z,0
2018-01-21T05:42:19.505Z,0
2018-01-21T05:43:00.039Z,0
2018-01-21T05:43:40.602Z,0
2018-01-21T05:44:21.086Z,0
2018-01-21T05:45:01.668Z,0
2018-01-21T05:45:42.178Z,0
2018-01-21T05:46:22.719Z,0
2018-01-21T05:47:03.291Z,0
2018-01-21T05:47:43.822Z,0
2018-01-21T05:48:24.349Z,0
2018-01-21T05:49:04.849Z,0
2018-01-21T05:49:45.388Z,0
2018-01-21T05:50:25.949Z,0
2018-01-21T05:51:06.503Z,0
2018-01-21T05:51:47.021Z,0
2018-01-21T05:52:27.561Z,0
2018-01-21T05:53:08.092Z,0
2018-01-21T05:53:48.635Z,0
2018-01-21T05:54:29.148Z,0
2018-01-21T05:55:09.713Z,0
2018-01-21T05:55:50.405Z,0
2018-01-21T05:56:30.953Z,0
2018-01-21T05:57:11.512Z,0
2018-01-21T05:57:52.029Z,0
2018-01-21T05:58:32.519Z,0
2018-01-21T05:59:13.055Z,0
2018-01-21T05:59:53.625Z,0
2018-01-21T06:00:34.110Z,0
2018-01-21T06:01:14.695Z,0
2018-01-21T06:01:55.223Z,0
2018-01-21T06:02:35.805Z,0
2018-01-21T06:03:16.318Z,0
2018-01-21T06:03:57.641Z,0
2018-01-21T06:04:37.385Z,0
2018-01-21T06:05:17.932Z,0
2018-01-21T06:05:58.479Z,0
2018-01-21T06:06:39.006Z,0
2018-01-21T06:07:19.517Z,0
2018-01-21T06:08:00.091Z,0
2018-01-21T06:08:40.598Z,0
2018-01-21T06:09:21.077Z,0
2018-01-21T06:10:01.677Z,0
2018-01-21T06:10:42.190Z,0
2018-01-21T06:11:22.755Z,0
2018-01-21T06:12:03.259Z,0
2018-01-21T06:12:43.809Z,0
2018-01-21T06:13:24.412Z,0
2018-01-21T06:14:04.966Z,0
2018-01-21T06:14:45.456Z,0
2018-01-21T06:15:26.028Z,0
2018-01-21T06:16:06.563Z,0
2018-01-21T06:16:47.127Z,0
2018-01-21T06:17:27.642Z,0
2018-01-21T06:18:08.214Z,0
2018-01-21T06:18:48.770Z,0
2018-01-21T06:19:29.249Z,0
2018-01-21T06:20:09.809Z,0
2018-01-21T06:20:50.355Z,0
2018-01-21T06:21:30.858Z,0
2018-01-21T06:22:11.410Z,0
2018-01-21T06:22:51.921Z,0
2018-01-21T06:23:32.430Z,0
2018-01-21T06:24:13.006Z,0
2018-01-21T06:24:53.555Z,0
2018-01-21T06:25:34.080Z,0
2018-01-21T06:26:14.590Z,0
2018-01-21T06:26:55.141Z,0
2018-01-21T06:27:35.707Z,0
2018-01-21T06:28:16.229Z,0
2018-01-21T06:28:56.783Z,0
2018-01-21T06:29:37.279Z,0
2018-01-21T06:30:17.961Z,0
2018-01-21T06:30:58.490Z,0
2018-01-21T06:31:38.992Z,0
2018-01-21T06:32:19.571Z,0
2018-01-21T06:33:00.065Z,0
2018-01-21T06:33:40.596Z,0
2018-01-21T06:34:21.180Z,0
2018-01-21T06:35:01.759Z,0
2018-01-21T06:35:42.305Z,0
2018-01-21T06:36:22.861Z,0
2018-01-21T06:37:03.410Z,0
2018-01-21T06:37:43.882Z,0
2018-01-21T06:38:24.449Z,0
2018-01-21T06:39:04.963Z,0
2018-01-21T06:39:45.484Z,0
2018-01-21T06:40:26.056Z,0
2018-01-21T06:41:06.617Z,0
2018-01-21T06:41:47.151Z,0
2018-01-21T06:42:27.686Z,0
2018-01-21T06:43:08.233Z,0
2018-01-21T06:43:48.777Z,0
2018-01-21T06:44:29.254Z,0
2018-01-21T06:45:09.882Z,0
2018-01-21T06:45:50.432Z,0
2018-01-21T06:46:30.971Z,0
2018-01-21T06:47:11.515Z,0
2018-01-21T06:47:52.008Z,0
2018-01-21T06:48:32.577Z,0
2018-01-21T06:49:13.162Z,0
2018-01-21T06:49:53.666Z,0
2018-01-21T06:50:34.264Z,0
2018-01-21T06:51:14.833Z,0
2018-01-21T06:51:55.378Z,0
2018-01-21T06:52:35.894Z,0
2018-01-21T06:53:16.411Z,0
2018-01-21T06:53:56.967Z,0
2018-01-21T06:54:37.531Z,0
2018-01-21T06:55:18.057Z,0
2018-01-21T06:55:58.584Z,0
2018-01-21T06:56:39.140Z,0
2018-01-21T06:57:19.674Z,0
2018-01-21T06:58:00.168Z,0
2018-01-21T06:58:40.728Z,0
2018-01-21T06:59:21.248Z,0
2018-01-21T07:00:01.832Z,0
2018-01-21T07:00:42.326Z,0
2018-01-21T07:01:22.930Z,0
2018-01-21T07:02:03.496Z,0
2018-01-21T07:02:44.031Z,0
2018-01-21T07:03:24.570Z,0
2018-01-21T07:04:05.063Z,0
2018-01-21T07:04:45.629Z,0
2018-01-21T07:05:26.146Z,0
2018-01-21T07:06:06.813Z,0
2018-01-21T07:06:47.261Z,0
2018-01-21T07:07:27.896Z,0
2018-01-21T07:08:08.438Z,0
2018-01-21T07:08:48.979Z,0
2018-01-21T07:09:29.551Z,0
2018-01-21T07:10:10.140Z,0
2018-01-21T07:10:50.662Z,0
2018-01-21T07:11:31.200Z,0
2018-01-21T07:12:12.658Z,0
2018-01-21T07:12:52.265Z,5
2018-01-21T07:13:32.827Z,5
2018-01-21T07:14:13.305Z,5
2018-01-21T07:14:53.838Z,5
2018-01-21T07:15:34.454Z,5
2018-01-21T07:16:15.029Z,5
2018-01-21T07:16:55.563Z,5
2018-01-21T07:17:36.075Z,5
2018-01-21T07:18:18.767Z,5
2018-01-21T07:18:59.270Z,5
2018-01-21T07:19:39.840Z,5
2018-01-21T07:20:20.330Z,5
2018-01-21T07:21:04.442Z,5
2018-01-21T07:21:45.140Z,5
2018-01-21T07:22:25.651Z,5
2018-01-21T07:23:06.331Z,5
2018-01-21T07:23:46.790Z,5
2018-01-21T07:24:27.325Z,5
2018-01-21T07:25:07.825Z,5
2018-01-21T07:25:48.404Z,5
2018-01-21T07:26:28.955Z,5
2018-01-21T07:27:09.537Z,5
2018-01-21T07:27:50.082Z,5
2018-01-21T07:28:30.626Z,5
2018-01-21T07:29:11.184Z,5
2018-01-21T07:29:51.934Z,10
2018-01-21T07:30:32.714Z,10
2018-01-21T07:31:13.240Z,10
2018-01-21T07:31:53.791Z,10
2018-01-21T07:32:34.233Z,10
2018-01-21T07:33:14.749Z,15
2018-01-21T07:33:55.275Z,15
2018-01-21T07:34:36.267Z,15
2018-01-21T07:35:16.788Z,20
2018-01-21T07:35:57.359Z,20
2018-01-21T07:36:37.876Z,20
2018-01-21T07:37:18.372Z,20
2018-01-21T07:37:58.905Z,20
2018-01-21T07:38:39.383Z,20
2018-01-21T07:39:19.950Z,20
2018-01-21T07:40:00.485Z,20
2018-01-21T07:40:40.968Z,20
2018-01-21T07:41:21.539Z,20
2018-01-21T07:42:02.826Z,20
2018-01-21T07:42:43.411Z,20
2018-01-21T07:43:23.916Z,25
2018-01-21T07:44:04.497Z,25
2018-01-21T07:44:44.980Z,25
2018-01-21T07:45:25.594Z,25
2018-01-21T07:46:06.104Z,25
2018-01-21T07:46:46.624Z,25
2018-01-21T07:47:27.215Z,25
2018-01-21T07:48:07.771Z,30
2018-01-21T07:48:48.303Z,30
2018-01-21T07:49:28.828Z,30
2018-01-21T07:50:09.355Z,25
2018-01-21T07:50:49.917Z,25
2018-01-21T07:51:30.476Z,25
2018-01-21T07:52:10.991Z,25
2018-01-21T07:52:51.523Z,25
2018-01-21T07:53:32.056Z,25
2018-01-21T07:54:12.683Z,25
2018-01-21T07:54:54.778Z,25
2018-01-21T07:55:35.345Z,25
2018-01-21T07:56:15.841Z,30
2018-01-21T07:56:56.371Z,30
2018-01-21T07:57:36.901Z,30
2018-01-21T07:58:17.543Z,30
2018-01-21T07:58:57.971Z,35
2018-01-21T07:59:38.514Z,35
2018-01-21T08:00:19.032Z,35
2018-01-21T08:00:59.570Z,35
2018-01-21T08:01:40.143Z,35
2018-01-21T08:02:20.717Z,30
2018-01-21T08:03:01.269Z,30
2018-01-21T08:03:41.824Z,30
2018-01-21T08:04:22.394Z,25
2018-01-21T08:05:02.915Z,25
2018-01-21T08:05:43.464Z,30
2018-01-21T08:06:24.010Z,30
2018-01-21T08:07:04.567Z,30
2018-01-21T08:07:45.137Z,30
2018-01-21T08:08:25.737Z,25
2018-01-21T08:09:06.244Z,30
2018-01-21T08:09:46.793Z,30
2018-01-21T08:10:27.347Z,30
2018-01-21T08:11:07.879Z,30
2018-01-21T08:11:48.420Z,30
2018-01-21T08:12:28.920Z,30
2018-01-21T08:13:09.638Z,30
2018-01-21T08:13:50.224Z,30
2018-01-21T08:14:30.896Z,35
2018-01-21T08:15:11.410Z,35
2018-01-21T08:15:52.067Z,35
2018-01-21T08:16:32.613Z,35
2018-01-21T08:17:13.134Z,40
2018-01-21T08:17:53.686Z,40
2018-01-21T08:18:34.250Z,45
2018-01-21T08:19:14.930Z,45
2018-01-21T08:19:55.440Z,50
2018-01-21T08:20:36.002Z,55
2018-01-21T08:21:16.736Z,55
2018-01-21T08:21:57.669Z,50
2018-01-21T08:22:37.808Z,50
2018-01-21T08:23:18.490Z,50
2018-01-21T08:23:58.954Z,50
2018-01-21T08:24:39.496Z,50
2018-01-21T08:25:20.675Z,55
2018-01-21T08:26:00.636Z,55
2018-01-21T08:26:41.185Z,50
2018-01-21T08:27:22.691Z,50
2018-01-21T08:28:02.650Z,45
2018-01-21T08:28:43.366Z,50
2018-01-21T08:29:24.073Z,55
2018-01-21T08:30:04.571Z,60
2018-01-21T08:30:45.108Z,60
2018-01-21T08:31:25.646Z,60
2018-01-21T08:32:06.228Z,60
2018-01-21T08:32:46.830Z,60
2018-01-21T08:33:27.342Z,55
2018-01-21T08:34:07.889Z,60
2018-01-21T08:34:48.441Z,60
2018-01-21T08:35:29.014Z,60
2018-01-21T08:36:09.556Z,60
2018-01-21T08:36:50.104Z,60
2018-01-21T08:37:30.608Z,55
2018-01-21T08:38:11.158Z,55
2018-01-21T08:38:51.669Z,55
2018-01-21T08:39:32.295Z,55
2018-01-21T08:40:12.778Z,60
2018-01-21T08:40:53.353Z,60
2018-01-21T08:41:33.920Z,60
2018-01-21T08:42:14.511Z,65
2018-01-21T08:42:55.055Z,65
2018-01-21T08:43:35.625Z,60
2018-01-21T08:44:17.848Z,60
2018-01-21T08:44:58.335Z,55
2018-01-21T08:45:38.863Z,55
2018-01-21T08:46:19.376Z,55
2018-01-21T08:46:59.987Z,50
2018-01-21T08:47:40.546Z,50
2018-01-21T08:48:21.179Z,50
2018-01-21T08:49:01.686Z,50
2018-01-21T08:57:18.609Z,55
2018-01-21T08:57:59.158Z,55
2018-01-21T08:58:39.731Z,55
2018-01-21T08:59:20.271Z,55
2018-01-21T09:00:00.862Z,55
2018-01-21T09:00:41.377Z,60
2018-01-21T09:01:21.964Z,60
2018-01-21T09:02:02.534Z,60
2018-01-21T09:02:43.108Z,60
2018-01-21T09:03:23.681Z,60
2018-01-21T09:04:04.260Z,55
2018-01-21T09:04:44.790Z,55
2018-01-21T09:05:25.412Z,55
2018-01-21T09:06:05.890Z,55
2018-01-21T09:06:46.470Z,55
2018-01-21T09:07:27.029Z,55
2018-01-21T09:08:07.689Z,55
2018-01-21T09:08:48.244Z,55
2018-01-21T09:09:28.815Z,55
2018-01-21T09:10:09.562Z,55
2018-01-21T09:10:50.108Z,55
2018-01-21T09:11:30.618Z,60
2018-01-21T09:12:11.246Z,60
2018-01-21T09:12:51.736Z,60
2018-01-21T09:13:34.205Z,65
2018-01-21T09:14:14.747Z,65
2018-01-21T09:14:55.253Z,65
2018-01-21T09:15:35.800Z,60
2018-01-21T09:16:16.414Z,65
2018-01-21T09:16:57.010Z,65
2018-01-21T09:17:37.623Z,65
2018-01-21T09:18:18.171Z,70
2018-01-21T09:18:58.660Z,70
2018-01-21T09:19:39.309Z,70
2018-01-21T09:20:19.897Z,65
2018-01-21T09:21:00.407Z,65
2018-01-21T09:21:40.973Z,60
2018-01-21T09:22:21.559Z,60
2018-01-21T09:23:02.176Z,65
2018-01-21T09:23:42.729Z,65
2018-01-21T09:24:26.214Z,65
2018-01-21T09:25:06.823Z,65
2018-01-21T09:25:47.421Z,65
2018-01-21T09:26:28.026Z,65
2018-01-21T09:27:08.583Z,65
2018-01-21T09:27:49.134Z,65
2018-01-21T09:28:29.726Z,65
2018-01-21T09:29:10.309Z,65
2018-01-21T09:29:50.946Z,70
2018-01-21T09:30:31.467Z,75
2018-01-21T09:31:11.993Z,70
2018-01-21T09:31:52.618Z,75
2018-01-21T09:32:33.157Z,80
2018-01-21T09:33:13.718Z,70
2018-01-21T09:33:54.262Z,70
2018-01-21T09:34:34.874Z,65
2018-01-21T09:35:15.485Z,65
2018-01-21T09:35:56.007Z,60
2018-01-21T09:36:36.637Z,60
2018-01-21T09:37:17.255Z,60
2018-01-21T09:37:57.877Z,60
2018-01-21T09:38:38.471Z,55
2018-01-21T09:39:19.098Z,55
2018-01-21T09:39:59.700Z,55
2018-01-21T09:40:40.285Z,55
2018-01-21T09:41:20.918Z,55
2018-01-21T09:42:01.538Z,55
2018-01-21T09:42:42.096Z,55
2018-01-21T09:43:22.766Z,55
2018-01-21T09:44:03.248Z,50
2018-01-21T09:44:43.799Z,50
2018-01-21T09:45:24.297Z,50
2018-01-21T09:46:04.931Z,50
2018-01-21T09:46:45.496Z,50
2018-01-21T09:47:26.103Z,45
2018-01-21T09:48:06.676Z,45
2018-01-21T09:48:47.299Z,45
2018-01-21T09:49:27.966Z,45
2018-01-21T09:50:08.562Z,45
2018-01-21T09:50:49.143Z,40
2018-01-21T09:51:29.798Z,40
2018-01-21T09:52:10.324Z,40
2018-01-21T09:52:51.009Z,40
2018-01-21T09:53:31.574Z,35
2018-01-21T09:54:12.161Z,35
2018-01-21T09:54:52.727Z,35
2018-01-21T09:55:33.364Z,40
2018-01-21T09:56:13.967Z,40
2018-01-21T09:56:54.546Z,40
2018-01-21T09:57:35.213Z,45
2018-01-21T09:58:15.740Z,45
2018-01-21T09:58:56.320Z,45
2018-01-21T09:59:36.913Z,45
2018-01-21T10:00:17.497Z,45
2018-01-21T10:00:58.084Z,45
2018-01-21T10:01:38.722Z,50
2018-01-21T10:02:19.280Z,50
2018-01-21T10:02:59.814Z,50
2018-01-21T10:03:40.463Z,60